Eagle Field


Codes: 0MU0/
Name: Eagle Field
City: Ellington
Country: United States
Elevation: 784 ft.

Photos at Eagle Field


   Photos courtesy of SpottingLog. You can add your own sightings and photos by signing up for a free trial today.



No photos found.

Weather at Eagle Field


Time (UTC)DescriptionTempratureWindCloud coverageVisibilityPressureHumidity
23-May-2024 21:00Overcast Clouds23°C4 mph, SW89%10000m1011hPa81%
24-May-2024 00:00Overcast Clouds23°C7 mph, S90%10000m1011hPa84%
24-May-2024 03:00Broken Clouds19°C4 mph, SE57%10000m1010hPa98%
24-May-2024 06:00Broken Clouds20°C4 mph, SE61%10000m1009hPa98%
24-May-2024 09:00Light Rain20°C7 mph, S100%10000m1008hPa97%
24-May-2024 12:00Overcast Clouds19°C4 mph, S89%10000m1009hPa98%
24-May-2024 15:00Few Clouds25°C11 mph, SW23%10000m1008hPa67%
24-May-2024 18:00Scattered Clouds26°C11 mph, SW43%10000m1008hPa67%
24-May-2024 21:00Light Rain26°C9 mph, S84%10000m1007hPa72%
25-May-2024 00:00Light Rain23°C4 mph, S92%10000m1007hPa89%
25-May-2024 03:00Light Rain22°C2 mph, SW100%10000m1008hPa96%
25-May-2024 06:00Light Rain20°C7 mph, NW100%10000m1010hPa98%
25-May-2024 09:00Broken Clouds17°C7 mph, N79%10000m1011hPa96%
25-May-2024 12:00Broken Clouds15°C4 mph, N51%10000m1012hPa95%
25-May-2024 15:00Clear Sky22°C7 mph, E0%10000m1012hPa60%
25-May-2024 18:00Clear Sky28°C4 mph, SE0%10000m1011hPa51%
25-May-2024 21:00Broken Clouds28°C7 mph, SE62%10000m1009hPa61%
26-May-2024 00:00Light Rain25°C7 mph, SE52%10000m1008hPa79%
26-May-2024 03:00Clear Sky21°C4 mph, SE3%10000m1008hPa98%
26-May-2024 06:00Few Clouds22°C7 mph, SE17%10000m1006hPa97%
26-May-2024 09:00Broken Clouds22°C9 mph, S66%10000m1004hPa98%
26-May-2024 12:00Moderate Rain22°C11 mph, S55%10000m1004hPa96%
26-May-2024 15:00Scattered Clouds28°C16 mph, SW42%10000m1002hPa62%
26-May-2024 18:00Scattered Clouds31°C16 mph, SW32%10000m1001hPa46%
26-May-2024 21:00Clear Sky34°C13 mph, SW0%10000m1000hPa37%
27-May-2024 00:00Clear Sky27°C11 mph, W1%10000m1003hPa57%
27-May-2024 03:00Clear Sky22°C7 mph, NW0%10000m1006hPa73%
27-May-2024 06:00Clear Sky18°C4 mph, NW0%10000m1007hPa93%
27-May-2024 09:00Clear Sky17°C2 mph, SW0%10000m1007hPa96%
27-May-2024 12:00Clear Sky18°C2 mph, NW0%10000m1009hPa90%
27-May-2024 15:00Clear Sky25°C7 mph, NW0%10000m1010hPa54%
27-May-2024 18:00Clear Sky29°C7 mph, W1%10000m1010hPa43%
27-May-2024 21:00Scattered Clouds30°C11 mph, W36%10000m1008hPa36%
28-May-2024 00:00Few Clouds23°C11 mph, NW21%10000m1009hPa54%
28-May-2024 03:00Clear Sky19°C9 mph, N0%10000m1014hPa70%
28-May-2024 06:00Clear Sky14°C4 mph, N0%10000m1015hPa95%
28-May-2024 09:00Clear Sky12°C4 mph, N0%10000m1016hPa96%
28-May-2024 12:00Clear Sky13°C2 mph, NW1%10000m1017hPa89%
28-May-2024 15:00Clear Sky21°C4 mph, N2%10000m1017hPa53%
28-May-2024 18:00Clear Sky26°C4 mph, NW3%10000m1016hPa36%